SFO weather

Public forecast

Using degrees Fahrenheit for public forecast. Weather courtesy of forecast.io.

Current aviation weather report (METAR) for San Francisco International Airport

Retrieved 2020/08/15 01:56 UTC (29 minutes ago):

KSFO 150156Z 29019KT 10SM FEW150 30/07 A2979 RMK AO2 SLP086 T03000072

Aviation forecast (TAF) for San Francisco International Airport

Retrieved 2020-08-15 00:33 UTC (2 hours ago):

TAF KSFO 142329Z 1500/1606 31015KT P6SM FEW200 FM150400 29011KT P6SM FEW020 FEW150 FM151000 29007KT P6SM SCT150 FM151700 33007KT P6SM SCT200 FM152100 30015KT P6SM FEW120 BKN200 FM160400 30009KT P6SM BKN120